Time;durP1;ratioP1;P1;durP2;ratioP2;P2;SDS_P1;SDS_P2;PMS_P1;PMS_P2;Temp;Humidity;BMP_temperature;BMP_pressure;BME280_temperature;BME280_humidity;BME280_pressure;Samples;Min_cycle;Max_cycle;Signal;HPM_P1;HPM_P2
2023/10/10 00:03:34;;;;;;;;;;;;;;;;;;;;;
2023/10/10 00:10:01;;;;;;;64.50;30.80;;;;;;;8.21;87.76;99107.30;223386;1296;138680;-82
2023/10/10 00:23:20;;;;;;;65.30;30.40;;;;;;;8.22;88.11;99105.69;223963;1293;138714;-81
2023/10/10 00:29:45;;;;;;;64.40;31.20;;;;;;;8.26;88.69;99106.02;224689;1281;138696;-81
2023/10/10 00:37:01;;;;;;;;;;;;;;;;;;;;;
2023/10/10 00:44:36;;;;;;;;;;;;;;;;;;;;;
2023/10/10 00:50:51;;;;;;;65.40;29.90;;;;;;;8.36;88.34;99108.67;224858;1287;139385;-81
2023/10/10 00:57:35;;;;;;;;;;;;;;;;;;;;;
2023/10/10 01:04:06;;;;;;;;;;;;;;;;;;;;;
2023/10/10 01:17:39;;;;;;;;;;;;;;;;;;;;;
2023/10/10 01:24:53;;;;;;;;;;;;;;;;;;;;;
2023/10/10 01:31:54;;;;;;;66.50;31.30;;;;;;;8.43;88.62;99090.26;225735;1281;24404;-81
2023/10/10 01:37:40;;;;;;;;;;;;;;;;;;;;;
2023/10/10 01:43:24;;;;;;;;;;;;;;;;;;;;;
2023/10/10 01:49:48;;;;;;;;;;;;;;;;;;;;;
2023/10/10 02:03:40;;;;;;;47.60;27.10;;;;;;;8.63;88.39;99105.11;225402;1281;138613;-81
2023/10/10 02:10:03;;;;;;;;;;;;;;;;;;;;;
2023/10/10 02:16:10;;;;;;;;;;;;;;;;;;;;;
2023/10/10 02:22:13;;;;;;;49.50;28.10;;;;;;;8.60;88.48;99094.06;225680;1281;138721;-81
2023/10/10 02:42:25;;;;;;;;;;;;;;;;;;;;;
2023/10/10 02:48:38;;;;;;;45.90;27.80;;;;;;;8.69;88.18;99101.52;225680;1281;139113;-82
2023/10/10 02:56:13;;;;;;;45.50;27.90;;;;;;;8.68;88.09;99102.65;225300;1281;22681;-81
2023/10/10 03:02:53;;;;;;;;;;;;;;;;;;;;;
2023/10/10 03:08:44;;;;;;;;;;;;;;;;;;;;;
2023/10/10 03:15:11;;;;;;;;;;;;;;;;;;;;;
2023/10/10 05:29:54;;;;;;;30.90;19.10;;;;;;;8.62;87.51;99149.95;225411;1281;139174;-81
2023/10/10 05:36:34;;;;;;;32.70;19.90;;;;;;;8.67;87.50;99141.80;224720;1281;139292;-80
2023/10/10 05:43:14;;;;;;;31.60;20.60;;;;;;;8.77;87.59;99137.00;225203;1281;138516;-80
2023/10/10 05:49:42;;;;;;;33.10;21.50;;;;;;;8.86;87.80;99142.48;224307;1283;138625;-81
2023/10/10 05:54:59;;;;;;;34.10;21.60;;;;;;;8.96;87.97;99141.24;225176;1277;138722;-81
2023/10/10 06:00:41;;;;;;;33.20;22.60;;;;;;;9.04;87.74;99135.10;224889;1279;138537;-80
2023/10/10 06:05:59;;;;;;;34.60;22.50;;;;;;;9.13;87.54;99132.83;224939;1275;138378;-81
2023/10/10 06:12:01;;;;;;;;;;;;;;;;;;;;;
2023/10/10 06:18:08;;;;;;;;;;;;;;;;;;;;;
2023/10/10 06:24:02;;;;;;;48.90;28.30;;;;;;;9.31;86.97;99144.50;225012;1275;138777;-81
2023/10/10 06:29:45;;;;;;;41.80;27.40;;;;;;;9.37;87.02;99152.08;224895;1275;138743;-81
2023/10/10 06:42:27;;;;;;;37.90;25.80;;;;;;;9.58;86.99;99149.05;224181;1280;140213;-80
2023/10/10 06:47:54;;;;;;;36.50;24.20;;;;;;;9.74;87.30;99159.45;223722;1286;138911;-82
2023/10/10 06:53:56;;;;;;;;;;;;;;;;;;;;;
2023/10/10 07:00:05;;;;;;;;;;;;;;;;;;;;;
2023/10/10 07:06:03;;;;;;;33.30;22.50;;;;;;;10.04;86.18;99165.19;224425;1280;138878;-81
2023/10/10 07:11:40;;;;;;;32.10;22.00;;;;;;;10.16;86.12;99180.09;224161;1282;139511;-82
2023/10/10 07:17:19;;;;;;;30.00;22.50;;;;;;;10.24;86.06;99183.16;224505;1276;139230;-82
2023/10/10 07:23:13;;;;;;;36.10;24.10;;;;;;;10.37;86.06;99191.20;224712;1270;23258;-81
2023/10/10 07:28:59;;;;;;;;;;;;;;;;;;;;;
2023/10/10 07:35:35;;;;;;;32.90;22.90;;;;;;;10.87;86.09;99202.48;224783;1277;138960;-81
2023/10/10 07:41:02;;;;;;;;;;;;;;;;;;;;;
2023/10/10 07:48:37;;;;;;;31.40;22.00;;;;;;;11.16;85.08;99199.25;224719;1274;138922;-83
2023/10/10 07:54:28;;;;;;;;;;;;;;;;;;;;;
2023/10/10 08:06:46;;;;;;;27.20;19.50;;;;;;;11.67;84.41;99208.39;225562;1276;138625;-82
2023/10/10 08:13:28;;;;;;;27.00;19.30;;;;;;;11.83;84.13;99216.10;224973;1276;138751;-85
2023/10/10 08:19:38;;;;;;;27.80;20.70;;;;;;;11.88;83.86;99208.39;225408;1278;138011;-89
2023/10/10 08:26:29;;;;;;;25.80;19.90;;;;;;;11.94;83.98;99201.09;225503;1283;137868;-87
2023/10/10 08:32:40;;;;;;;;;;;;;;;;;;;;;
2023/10/10 08:45:55;;;;;;;;;;;;;;;;;;;;;
2023/10/10 08:52:09;;;;;;;25.10;20.20;;;;;;;12.22;82.65;99219.77;224547;1281;138832;-86
2023/10/10 08:57:26;;;;;;;27.00;21.20;;;;;;;12.43;83.30;99216.56;224765;1266;139512;-85
2023/10/10 09:02:57;;;;;;;28.30;20.40;;;;;;;12.64;83.20;99218.02;224735;1277;138925;-86
2023/10/10 09:08:56;;;;;;;25.80;19.90;;;;;;;12.69;82.64;99217.18;225097;1276;22567;-87
2023/10/10 09:15:37;;;;;;;;;;;;;;;;;;;;;
2023/10/10 09:21:46;;;;;;;25.00;19.40;;;;;;;13.01;82.55;99195.52;225148;1283;138058;-87
2023/10/10 09:28:04;;;;;;;;;;;;;;;;;;;;;
2023/10/10 09:33:45;;;;;;;24.90;19.30;;;;;;;13.34;82.42;99202.42;225090;1260;138895;-87
2023/10/10 09:39:41;;;;;;;27.70;22.10;;;;;;;13.32;81.90;99204.67;224902;1281;138250;-84
2023/10/10 09:45:17;;;;;;;24.10;18.50;;;;;;;13.30;82.14;99210.11;224720;1284;138830;-85
2023/10/10 09:50:35;;;;;;;24.00;19.20;;;;;;;13.19;81.94;99220.16;224814;1284;22575;-85
2023/10/10 09:56:58;;;;;;;24.70;18.70;;;;;;;13.23;82.73;99216.27;224439;1287;24351;-85
2023/10/10 10:02:50;;;;;;;;;;;;;;;;;;;;;
2023/10/10 10:08:37;;;;;;;19.30;16.50;;;;;;;13.69;82.27;99213.88;224242;1287;22566;-86
2023/10/10 10:15:07;;;;;;;;;;;;;;;;;;;;;
2023/10/10 10:20:24;;;;;;;21.80;17.70;;;;;;;13.89;81.85;99213.23;224484;1282;22709;-86
2023/10/10 10:25:52;;;;;;;20.80;16.70;;;;;;;13.85;81.58;99211.02;224813;1276;138509;-84
2023/10/10 10:31:35;;;;;;;24.00;18.90;;;;;;;13.73;81.27;99216.89;224718;1281;138924;-85
2023/10/10 10:37:24;;;;;;;23.70;19.30;;;;;;;13.64;81.96;99215.25;224838;1281;138602;-84
2023/10/10 10:42:38;;;;;;;26.40;19.00;;;;;;;13.66;82.09;99216.60;224774;1280;138591;-87
2023/10/10 10:49:28;;;;;;;;;;;;;;;13.58;82.03;99208.84;224895;1283;138750;-88
2023/10/10 10:54:07;;;;;;;24.10;18.90;;;;;;;13.61;82.45;99217.60;224680;1268;125150;-82
2023/10/10 10:59:12;;;;;;;26.20;20.70;;;;;;;13.73;82.78;99212.18;224656;1279;138788;-83
2023/10/10 11:10:08;;;;;;;;;;;;;;;14.01;82.76;99215.20;224558;1265;138781;-82
2023/10/10 11:15:16;;;;;;;30.70;21.60;;;;;;;14.02;82.56;99217.34;224558;1281;124924;-80
2023/10/10 11:20:30;;;;;;;33.50;24.00;;;;;;;14.04;82.77;99218.94;224732;1282;22586;-80
2023/10/10 11:25:45;;;;;;;34.00;25.80;;;;;;;14.11;82.99;99217.97;224530;1277;138445;-80
2023/10/10 11:30:58;;;;;;;38.10;27.10;;;;;;;14.18;82.97;99213.09;224391;1276;138078;-82
2023/10/10 11:36:47;;;;;;;37.80;26.60;;;;;;;14.28;82.99;99210.41;224421;1281;138782;-82
2023/10/10 11:41:54;;;;;;;38.20;27.30;;;;;;;14.40;82.64;99205.36;223930;1289;139020;-84
2023/10/10 11:47:42;;;;;;;34.90;26.00;;;;;;;14.47;82.43;99203.31;224557;1274;140188;-84
2023/10/10 11:53:19;;;;;;;;;;;;;;;;;;;;;
2023/10/10 11:58:53;;;;;;;34.70;25.50;;;;;;;15.13;82.94;99192.06;224862;1270;138804;-82
2023/10/10 12:04:08;;;;;;;33.60;24.20;;;;;;;15.47;82.89;99191.64;225025;1273;138921;-81
2023/10/10 12:10:07;;;;;;;;;;;;;;;;;;;;;
2023/10/10 12:16:29;;;;;;;36.20;23.60;;;;;;;16.02;81.52;99182.58;225146;1281;138770;-84
2023/10/10 12:22:17;;;;;;;31.40;23.30;;;;;;;16.47;81.56;99177.14;224931;1280;138872;-80
2023/10/10 12:27:39;;;;;;;47.20;24.10;;;;;;;16.71;80.87;99179.33;224927;1281;139143;-80
2023/10/10 12:33:07;;;;;;;26.90;21.20;;;;;;;17.14;80.35;99169.83;224452;1289;22596;-79
2023/10/10 12:38:21;;;;;;;27.20;20.50;;;;;;;17.13;79.21;99169.45;224368;1286;22561;-79
2023/10/10 12:43:37;;;;;;;24.20;19.10;;;;;;;16.98;78.86;99167.77;224288;1283;138589;-81
2023/10/10 12:48:43;;;;;;;19.70;15.60;;;;;;;16.64;78.95;99171.90;224353;1276;138836;-83
2023/10/10 12:53:46;;;;;;;17.10;14.30;;;;;;;16.36;79.20;99173.04;224966;1272;138923;-80
2023/10/10 12:58:54;;;;;;;18.90;13.30;;;;;;;16.31;79.89;99164.73;224977;1276;138907;-82
2023/10/10 13:04:29;;;;;;;17.90;13.70;;;;;;;16.40;79.59;99147.56;224923;1265;138928;-79
2023/10/10 13:09:42;;;;;;;17.90;14.40;;;;;;;16.52;79.76;99158.14;225017;1276;138802;-82
2023/10/10 13:14:52;;;;;;;18.60;13.60;;;;;;;16.71;79.92;99148.12;225152;1276;22571;-81
2023/10/10 13:20:29;;;;;;;15.80;13.60;;;;;;;16.85;79.61;99149.16;225033;1282;138298;-82
2023/10/10 13:25:46;;;;;;;15.20;12.50;;;;;;;17.10;79.42;99144.89;224960;1280;138817;-82
2023/10/10 13:32:11;;;;;;;;;;;;;;;;;;;;;
2023/10/10 13:37:35;;;;;;;14.30;10.60;;;;;;;17.43;78.08;99145.39;224910;1285;138237;-80
2023/10/10 13:42:58;;;;;;;13.50;11.10;;;;;;;17.24;77.82;99146.45;224577;1280;231705;-81
2023/10/10 13:48:08;;;;;;;14.40;10.90;;;;;;;17.16;78.17;99146.84;224831;1273;138774;-81
2023/10/10 13:53:14;;;;;;;13.80;10.40;;;;;;;17.12;78.22;99137.27;224727;1285;138948;-74
2023/10/10 13:58:31;;;;;;;12.30;9.70;;;;;;;17.06;78.23;99133.52;224710;1280;139080;-82
2023/10/10 14:03:45;;;;;;;12.70;9.40;;;;;;;16.82;77.95;99137.16;224840;1280;139805;-79
2023/10/10 14:08:59;;;;;;;12.20;9.60;;;;;;;16.65;78.44;99145.45;224991;1272;22543;-81
2023/10/10 14:14:10;;;;;;;12.30;10.10;;;;;;;16.59;78.68;99146.55;224817;1277;138133;-83
2023/10/10 14:19:13;;;;;;;10.90;9.00;;;;;;;16.57;78.75;99141.73;224818;1277;138599;-85
2023/10/10 14:24:16;;;;;;;11.80;9.00;;;;;;;16.50;78.36;99136.89;224941;1276;138719;-81
2023/10/10 14:29:19;;;;;;;10.30;8.40;;;;;;;16.42;78.66;99137.59;224813;1261;138682;-83
2023/10/10 14:34:26;;;;;;;10.80;8.60;;;;;;;16.42;78.89;99138.03;224825;1264;138596;-79
2023/10/10 14:39:51;;;;;;;9.40;8.30;;;;;;;16.42;78.92;99141.56;224269;1267;139412;-82
2023/10/10 14:44:55;;;;;;;11.00;8.30;;;;;;;16.39;78.68;99138.63;224468;1269;22627;-82
2023/10/10 14:50:07;;;;;;;9.30;7.60;;;;;;;16.28;78.64;99140.19;224235;1274;138111;-82
2023/10/10 14:55:27;;;;;;;9.70;7.60;;;;;;;16.13;78.74;99138.35;224330;1283;138287;-82
2023/10/10 15:00:56;;;;;;;9.60;7.80;;;;;;;15.96;78.82;99142.85;224297;1287;139446;-83
2023/10/10 15:06:08;;;;;;;11.00;8.30;;;;;;;15.82;79.34;99147.18;224487;1280;138632;-80
2023/10/10 15:11:12;;;;;;;10.00;8.00;;;;;;;15.76;79.43;99147.92;224445;1276;138740;-80
2023/10/10 15:16:15;;;;;;;11.50;9.20;;;;;;;15.76;79.99;99144.70;224767;1283;138027;-80
2023/10/10 15:21:24;;;;;;;9.50;7.70;;;;;;;15.75;79.97;99143.47;224753;1267;138592;-80
2023/10/10 15:26:31;;;;;;;14.60;8.60;;;;;;;15.69;80.17;99140.36;224878;1264;22609;-80
2023/10/10 15:31:36;;;;;;;13.30;9.20;;;;;;;15.63;80.63;99142.47;224855;1273;138378;-80
2023/10/10 15:36:44;;;;;;;10.80;8.80;;;;;;;15.57;80.72;99143.40;224908;1266;138656;-81
2023/10/10 15:41:51;;;;;;;11.80;9.30;;;;;;;15.54;80.84;99150.23;224728;1268;138728;-79
2023/10/10 15:46:58;;;;;;;15.00;9.80;;;;;;;15.51;80.96;99154.86;224844;1281;138605;-79
2023/10/10 15:52:03;;;;;;;13.20;10.10;;;;;;;15.50;81.06;99152.33;224731;1283;138599;-80
2023/10/10 15:57:08;;;;;;;14.70;11.50;;;;;;;15.47;80.97;99162.98;225177;1276;138184;-80
2023/10/10 16:02:13;;;;;;;13.60;10.80;;;;;;;15.41;81.23;99168.62;224961;1261;23602;-81
2023/10/10 16:07:18;;;;;;;14.10;11.00;;;;;;;15.36;81.37;99183.17;224970;1276;138482;-83
2023/10/10 16:12:20;;;;;;;15.40;11.20;;;;;;;15.31;81.55;99180.89;224874;1273;138921;-80
2023/10/10 16:17:23;;;;;;;15.70;12.60;;;;;;;15.18;81.23;99187.48;224851;1260;138870;-81
2023/10/10 16:22:27;;;;;;;13.40;10.10;;;;;;;15.07;81.25;99203.41;224864;1278;138922;-81
2023/10/10 16:27:33;;;;;;;17.00;11.70;;;;;;;14.98;81.33;99216.65;224866;1281;138752;-80
2023/10/10 16:32:41;;;;;;;14.00;11.10;;;;;;;14.89;81.91;99223.89;225068;1276;22575;-85
2023/10/10 16:37:48;;;;;;;14.10;11.70;;;;;;;14.80;82.35;99223.61;224955;1281;138488;-84
2023/10/10 16:42:55;;;;;;;18.10;13.30;;;;;;;14.71;82.20;99221.42;224856;1268;138572;-81
2023/10/10 16:48:08;;;;;;;16.70;13.10;;;;;;;14.62;82.16;99216.60;225082;1278;138836;-81
2023/10/10 16:53:13;;;;;;;16.30;13.80;;;;;;;14.52;82.55;99213.77;224854;1260;138768;-82
2023/10/10 16:58:16;;;;;;;18.20;13.70;;;;;;;14.44;82.86;99210.10;224764;1260;141050;-83
2023/10/10 17:03:19;;;;;;;23.50;17.00;;;;;;;14.37;83.06;99212.08;224664;1264;138956;-80
2023/10/10 17:08:29;;;;;;;19.60;15.40;;;;;;;14.28;83.02;99207.95;225158;1264;22559;-86
2023/10/10 17:13:38;;;;;;;18.30;14.90;;;;;;;14.17;82.97;99210.30;225598;1277;137858;-81
2023/10/10 17:18:48;;;;;;;19.60;15.50;;;;;;;14.11;83.55;99215.10;224980;1283;138657;-81
2023/10/10 17:23:59;;;;;;;21.80;15.70;;;;;;;14.08;83.47;99214.54;224983;1283;138979;-81
2023/10/10 17:29:04;;;;;;;20.20;16.40;;;;;;;14.04;83.71;99213.95;225069;1271;138775;-80
2023/10/10 17:34:32;;;;;;;23.30;17.00;;;;;;;14.00;83.79;99217.60;225115;1276;138821;-81
2023/10/10 17:39:35;;;;;;;21.00;16.40;;;;;;;13.97;84.13;99220.94;225123;1282;138773;-81
2023/10/10 17:44:53;;;;;;;22.60;17.50;;;;;;;13.91;84.05;99217.50;225063;1276;22539;-81
2023/10/10 17:49:59;;;;;;;21.20;17.40;;;;;;;13.86;84.40;99218.08;224845;1277;138643;-78
2023/10/10 17:55:02;;;;;;;24.40;18.10;;;;;;;13.81;84.38;99218.30;224871;1276;138635;-79
2023/10/10 18:00:31;;;;;;;;;;;;;;;;;;;;;
2023/10/10 18:05:42;;;;;;;23.00;18.30;;;;;;;13.68;84.65;99221.92;224742;1277;138298;-79
2023/10/10 18:10:47;;;;;;;29.20;20.80;;;;;;;13.66;84.99;99229.66;224627;1283;138972;-79
2023/10/10 18:15:49;;;;;;;35.70;26.90;;;;;;;13.64;85.13;99230.00;225037;1274;138900;-79
2023/10/10 18:20:54;;;;;;;78.00;47.90;;;;;;;13.60;85.18;99231.90;225172;1283;22576;-83
2023/10/10 18:26:13;;;;;;;85.60;53.60;;;;;;;13.53;85.09;99228.26;225142;1276;138447;-81
2023/10/10 18:31:24;;;;;;;79.40;47.30;;;;;;;13.42;85.05;99229.63;224968;1274;138111;-84
2023/10/10 18:36:27;;;;;;;83.00;52.30;;;;;;;13.30;85.46;99234.13;224941;1275;138951;-81
2023/10/10 18:41:31;;;;;;;81.90;52.20;;;;;;;13.17;85.20;99230.91;224849;1276;138956;-78
2023/10/10 18:46:35;;;;;;;87.60;55.20;;;;;;;13.04;85.32;99233.50;225113;1266;138929;-79
2023/10/10 18:51:38;;;;;;;82.50;54.00;;;;;;;12.93;85.53;99232.44;224914;1283;138920;-79
2023/10/10 18:56:41;;;;;;;85.20;53.80;;;;;;;12.81;85.61;99235.72;225007;1277;22541;-78
2023/10/10 19:01:47;;;;;;;80.50;53.20;;;;;;;12.66;85.69;99234.77;225029;1283;138806;-79
2023/10/10 19:06:54;;;;;;;78.60;51.60;;;;;;;12.53;86.11;99236.03;225168;1283;138994;-79
2023/10/10 19:11:57;;;;;;;77.70;51.90;;;;;;;12.45;86.22;99237.42;225283;1279;138838;-77
2023/10/10 19:17:01;;;;;;;71.10;47.30;;;;;;;12.35;86.46;99238.74;224980;1280;139196;-79
2023/10/10 19:22:07;;;;;;;64.50;44.80;;;;;;;12.24;86.43;99237.73;225181;1282;138815;-79
2023/10/10 19:27:12;;;;;;;62.90;43.90;;;;;;;12.09;86.49;99233.45;225104;1279;138949;-79
2023/10/10 19:32:18;;;;;;;62.80;44.80;;;;;;;11.97;86.68;99238.73;225218;1283;22570;-79
2023/10/10 19:37:21;;;;;;;63.50;45.10;;;;;;;11.88;87.04;99237.51;225142;1281;138671;-78
2023/10/10 19:42:26;;;;;;;60.60;45.80;;;;;;;11.86;87.25;99241.58;225021;1282;138819;-80
2023/10/10 19:47:29;;;;;;;61.00;43.80;;;;;;;11.89;87.70;99234.87;225196;1283;138936;-78
2023/10/10 19:52:40;;;;;;;70.90;51.20;;;;;;;11.90;87.62;99235.29;225187;1282;138831;-80
2023/10/10 19:57:45;;;;;;;77.20;54.90;;;;;;;11.89;87.74;99239.27;225239;1278;138849;-78
2023/10/10 20:02:56;;;;;;;94.10;65.60;;;;;;;11.87;87.88;99236.45;225211;1261;22571;-79
2023/10/10 20:08:20;;;;;;;96.30;66.90;;;;;;;11.84;87.82;99233.80;225180;1283;138483;-79
2023/10/10 20:13:22;;;;;;;91.60;62.70;;;;;;;11.79;88.00;99228.35;225123;1280;139614;-79
2023/10/10 20:18:25;;;;;;;79.20;56.20;;;;;;;11.71;88.00;99226.14;225104;1283;138941;-79
2023/10/10 20:23:27;;;;;;;79.50;52.20;;;;;;;11.60;88.12;99225.77;224962;1273;139007;-78
2023/10/10 20:28:29;;;;;;;74.30;52.90;;;;;;;11.51;88.07;99224.22;225119;1277;138806;-79
2023/10/10 20:33:33;;;;;;;76.50;52.80;;;;;;;11.43;88.25;99223.86;225197;1283;140093;-79
2023/10/10 20:38:35;;;;;;;75.70;50.30;;;;;;;11.38;88.46;99224.12;225247;1280;22546;-79
2023/10/10 20:43:47;;;;;;;71.90;49.90;;;;;;;11.40;88.74;99225.98;225153;1283;138455;-80
2023/10/10 20:49:47;;;;;;;76.10;53.70;;;;;;;11.42;88.81;99224.82;224921;1280;138825;-79
2023/10/10 20:55:18;;;;;;;74.80;52.20;;;;;;;11.47;88.98;99223.58;224872;1287;138677;-79
2023/10/10 21:00:34;;;;;;;88.60;61.10;;;;;;;11.50;89.22;99218.70;224878;1280;139070;-79
2023/10/10 21:05:42;;;;;;;79.30;57.30;;;;;;;11.54;89.40;99213.15;224930;1287;138750;-79
2023/10/10 21:11:17;;;;;;;76.90;55.10;;;;;;;11.55;89.42;99202.62;224789;1287;138865;-79
2023/10/10 21:16:47;;;;;;;;;;;;;;;;;;;;;
2023/10/10 21:22:30;;;;;;;74.80;54.60;;;;;;;11.50;89.57;99193.91;225258;1283;138749;-80
2023/10/10 21:27:34;;;;;;;77.00;53.10;;;;;;;11.48;89.63;99197.83;225280;1277;138868;-79
2023/10/10 21:32:40;;;;;;;67.00;49.20;;;;;;;11.46;89.69;99198.12;225417;1280;22568;-80
2023/10/10 21:37:43;;;;;;;66.20;49.50;;;;;;;11.40;89.69;99185.70;225235;1265;138606;-79
2023/10/10 21:43:12;;;;;;;70.50;52.40;;;;;;;11.36;89.73;99183.23;225110;1283;138771;-79
2023/10/10 21:48:45;;;;;;;67.20;48.80;;;;;;;11.31;89.93;99178.10;225196;1283;139032;-79
2023/10/10 21:53:58;;;;;;;64.80;46.30;;;;;;;11.28;89.97;99171.67;225219;1283;138919;-80
2023/10/10 21:59:06;;;;;;;60.40;46.00;;;;;;;11.23;89.99;99166.95;225088;1264;139042;-80
2023/10/10 22:04:22;;;;;;;67.90;47.50;;;;;;;11.18;90.01;99159.94;225029;1268;139769;-80
2023/10/10 22:09:32;;;;;;;66.00;47.00;;;;;;;11.13;90.17;99159.48;225271;1283;138759;-78
2023/10/10 22:14:39;;;;;;;58.60;41.90;;;;;;;11.09;90.09;99159.09;225224;1278;22546;-78
2023/10/10 22:19:50;;;;;;;58.30;42.10;;;;;;;11.07;90.35;99155.72;225016;1283;138504;-77
2023/10/10 22:25:02;;;;;;;61.70;46.20;;;;;;;11.03;90.48;99150.00;225106;1283;138780;-78
2023/10/10 22:30:13;;;;;;;55.10;40.90;;;;;;;11.00;90.46;99144.34;225080;1268;138802;-77
2023/10/10 22:35:18;;;;;;;55.90;42.40;;;;;;;10.97;90.53;99146.34;225234;1280;139042;-77
2023/10/10 22:40:24;;;;;;;59.00;43.60;;;;;;;10.92;90.75;99144.69;225133;1280;138886;-78
2023/10/10 22:45:32;;;;;;;53.50;39.80;;;;;;;10.90;90.85;99140.02;225238;1282;138397;-78
2023/10/10 22:50:36;;;;;;;57.10;41.70;;;;;;;10.89;90.95;99145.38;225337;1280;22549;-77
2023/10/10 22:55:49;;;;;;;61.50;41.70;;;;;;;10.90;90.99;99139.04;225214;1280;138521;-78
2023/10/10 23:00:56;;;;;;;59.40;42.40;;;;;;;10.92;91.29;99135.38;225117;1283;138955;-78
2023/10/10 23:06:14;;;;;;;53.60;39.80;;;;;;;10.95;91.38;99128.71;225267;1283;138777;-78
2023/10/10 23:11:18;;;;;;;56.60;41.00;;;;;;;10.99;91.37;99126.48;225203;1283;138794;-78
2023/10/10 23:16:24;;;;;;;57.50;40.80;;;;;;;11.04;91.44;99123.98;225206;1269;138818;-78
2023/10/10 23:21:43;;;;;;;58.50;40.20;;;;;;;11.09;91.72;99125.25;225343;1283;139342;-78
2023/10/10 23:26:50;;;;;;;53.40;38.90;;;;;;;11.15;91.70;99128.77;225462;1280;22545;-78
2023/10/10 23:32:08;;;;;;;53.40;38.30;;;;;;;11.19;91.71;99134.41;225110;1282;139143;-78
2023/10/10 23:37:25;;;;;;;55.00;38.20;;;;;;;11.24;91.70;99126.55;225256;1282;138881;-78
2023/10/10 23:42:35;;;;;;;51.60;34.90;;;;;;;11.29;91.95;99119.27;225404;1282;138586;-78
2023/10/10 23:48:02;;;;;;;53.40;37.90;;;;;;;11.35;91.91;99121.40;225330;1282;138846;-77
2023/10/10 23:53:24;;;;;;;52.50;38.40;;;;;;;11.41;92.00;99110.44;225427;1282;138326;-78
2023/10/10 23:59:32;;;;;;;50.10;35.80;;;;;;;11.48;92.05;99108.03;225342;1283;138794;-79
